sensor_id;sensor_type;location;lat;lon;timestamp;P1;durP1;ratioP1;P2;durP2;ratioP2
60239;SDS011;46102;39.012;-7.064;2023-04-24T00:00:10;6.47;;;1.90;;
60239;SDS011;46102;39.012;-7.064;2023-04-24T00:02:16;7.13;;;2.42;;
60239;SDS011;46102;39.012;-7.064;2023-04-24T00:04:17;5.85;;;2.42;;
60239;SDS011;46102;39.012;-7.064;2023-04-24T00:06:18;4.13;;;1.38;;
60239;SDS011;46102;39.012;-7.064;2023-04-24T00:08:19;2.88;;;1.48;;
60239;SDS011;46102;39.012;-7.064;2023-04-24T00:10:20;4.05;;;1.38;;
60239;SDS011;46102;39.012;-7.064;2023-04-24T00:12:20;4.38;;;1.20;;
60239;SDS011;46102;39.012;-7.064;2023-04-24T00:14:21;5.80;;;1.30;;
60239;SDS011;46102;39.012;-7.064;2023-04-24T00:16:22;4.47;;;1.67;;
60239;SDS011;46102;39.012;-7.064;2023-04-24T00:18:23;2.33;;;1.60;;
60239;SDS011;46102;39.012;-7.064;2023-04-24T00:20:24;8.70;;;2.08;;
60239;SDS011;46102;39.012;-7.064;2023-04-24T00:22:25;3.90;;;1.27;;
60239;SDS011;46102;39.012;-7.064;2023-04-24T00:24:26;2.45;;;1.33;;
60239;SDS011;46102;39.012;-7.064;2023-04-24T00:26:27;6.70;;;1.60;;
60239;SDS011;46102;39.012;-7.064;2023-04-24T00:28:30;4.07;;;1.30;;
60239;SDS011;46102;39.012;-7.064;2023-04-24T00:30:31;5.70;;;1.60;;
60239;SDS011;46102;39.012;-7.064;2023-04-24T00:32:32;6.60;;;1.45;;
60239;SDS011;46102;39.012;-7.064;2023-04-24T00:34:33;5.90;;;1.98;;
60239;SDS011;46102;39.012;-7.064;2023-04-24T00:36:34;8.20;;;2.25;;
60239;SDS011;46102;39.012;-7.064;2023-04-24T00:38:35;2.92;;;1.70;;
60239;SDS011;46102;39.012;-7.064;2023-04-24T00:40:37;7.53;;;1.80;;
60239;SDS011;46102;39.012;-7.064;2023-04-24T00:42:38;3.80;;;1.50;;
60239;SDS011;46102;39.012;-7.064;2023-04-24T00:44:40;3.95;;;1.30;;
60239;SDS011;46102;39.012;-7.064;2023-04-24T00:46:41;3.45;;;1.70;;
60239;SDS011;46102;39.012;-7.064;2023-04-24T00:48:43;6.18;;;2.22;;
60239;SDS011;46102;39.012;-7.064;2023-04-24T00:50:43;4.72;;;1.35;;
60239;SDS011;46102;39.012;-7.064;2023-04-24T00:52:48;4.75;;;1.92;;
60239;SDS011;46102;39.012;-7.064;2023-04-24T00:54:49;2.75;;;1.73;;
60239;SDS011;46102;39.012;-7.064;2023-04-24T00:56:50;8.57;;;2.20;;
60239;SDS011;46102;39.012;-7.064;2023-04-24T00:58:51;3.55;;;1.60;;
60239;SDS011;46102;39.012;-7.064;2023-04-24T01:00:52;8.02;;;1.50;;
60239;SDS011;46102;39.012;-7.064;2023-04-24T01:02:54;1.83;;;1.27;;
60239;SDS011;46102;39.012;-7.064;2023-04-24T01:04:56;4.30;;;1.38;;
60239;SDS011;46102;39.012;-7.064;2023-04-24T01:06:57;4.68;;;1.55;;
60239;SDS011;46102;39.012;-7.064;2023-04-24T01:08:58;5.03;;;1.30;;
60239;SDS011;46102;39.012;-7.064;2023-04-24T01:11:00;2.80;;;1.50;;
60239;SDS011;46102;39.012;-7.064;2023-04-24T01:13:03;4.47;;;2.17;;
60239;SDS011;46102;39.012;-7.064;2023-04-24T01:15:05;3.47;;;1.70;;
60239;SDS011;46102;39.012;-7.064;2023-04-24T01:17:06;6.78;;;1.75;;
60239;SDS011;46102;39.012;-7.064;2023-04-24T01:19:09;3.22;;;1.70;;
60239;SDS011;46102;39.012;-7.064;2023-04-24T01:21:13;4.93;;;1.90;;
60239;SDS011;46102;39.012;-7.064;2023-04-24T01:23:15;4.80;;;2.47;;
60239;SDS011;46102;39.012;-7.064;2023-04-24T01:25:16;6.72;;;2.58;;
60239;SDS011;46102;39.012;-7.064;2023-04-24T01:27:17;8.77;;;2.55;;
60239;SDS011;46102;39.012;-7.064;2023-04-24T01:29:19;4.88;;;2.35;;
60239;SDS011;46102;39.012;-7.064;2023-04-24T01:31:20;9.07;;;2.83;;
60239;SDS011;46102;39.012;-7.064;2023-04-24T01:33:21;5.85;;;2.85;;
60239;SDS011;46102;39.012;-7.064;2023-04-24T01:35:22;10.30;;;4.22;;
60239;SDS011;46102;39.012;-7.064;2023-04-24T01:37:23;5.80;;;3.92;;
60239;SDS011;46102;39.012;-7.064;2023-04-24T01:39:24;7.60;;;4.35;;
60239;SDS011;46102;39.012;-7.064;2023-04-24T01:41:27;15.47;;;4.43;;
60239;SDS011;46102;39.012;-7.064;2023-04-24T01:43:29;10.45;;;4.72;;
60239;SDS011;46102;39.012;-7.064;2023-04-24T01:45:32;11.05;;;4.43;;
60239;SDS011;46102;39.012;-7.064;2023-04-24T01:47:33;12.25;;;4.50;;
60239;SDS011;46102;39.012;-7.064;2023-04-24T01:49:34;9.15;;;4.07;;
60239;SDS011;46102;39.012;-7.064;2023-04-24T01:51:35;9.38;;;4.80;;
60239;SDS011;46102;39.012;-7.064;2023-04-24T01:53:37;4.97;;;3.42;;
60239;SDS011;46102;39.012;-7.064;2023-04-24T01:55:37;4.13;;;3.42;;
60239;SDS011;46102;39.012;-7.064;2023-04-24T01:57:39;8.43;;;4.40;;
60239;SDS011;46102;39.012;-7.064;2023-04-24T01:59:40;6.43;;;3.50;;
60239;SDS011;46102;39.012;-7.064;2023-04-24T02:01:41;9.95;;;3.92;;
60239;SDS011;46102;39.012;-7.064;2023-04-24T02:03:41;7.07;;;3.00;;
60239;SDS011;46102;39.012;-7.064;2023-04-24T02:05:44;12.57;;;3.92;;
60239;SDS011;46102;39.012;-7.064;2023-04-24T02:07:45;8.93;;;4.15;;
60239;SDS011;46102;39.012;-7.064;2023-04-24T02:09:46;6.90;;;3.75;;
60239;SDS011;46102;39.012;-7.064;2023-04-24T02:11:47;10.15;;;4.00;;
60239;SDS011;46102;39.012;-7.064;2023-04-24T02:13:47;8.65;;;4.30;;
60239;SDS011;46102;39.012;-7.064;2023-04-24T02:15:48;4.00;;;2.58;;
60239;SDS011;46102;39.012;-7.064;2023-04-24T02:17:49;7.25;;;3.15;;
60239;SDS011;46102;39.012;-7.064;2023-04-24T02:19:50;9.73;;;3.53;;
60239;SDS011;46102;39.012;-7.064;2023-04-24T02:21:51;5.18;;;3.10;;
60239;SDS011;46102;39.012;-7.064;2023-04-24T02:23:51;4.65;;;3.20;;
60239;SDS011;46102;39.012;-7.064;2023-04-24T02:25:52;3.90;;;3.38;;
60239;SDS011;46102;39.012;-7.064;2023-04-24T02:27:53;4.22;;;3.28;;
60239;SDS011;46102;39.012;-7.064;2023-04-24T02:29:54;5.85;;;3.38;;
60239;SDS011;46102;39.012;-7.064;2023-04-24T02:31:55;6.45;;;3.35;;
60239;SDS011;46102;39.012;-7.064;2023-04-24T02:33:56;10.63;;;3.85;;
60239;SDS011;46102;39.012;-7.064;2023-04-24T02:35:57;3.97;;;3.13;;
60239;SDS011;46102;39.012;-7.064;2023-04-24T02:37:57;5.95;;;3.22;;
60239;SDS011;46102;39.012;-7.064;2023-04-24T02:39:58;8.38;;;3.17;;
60239;SDS011;46102;39.012;-7.064;2023-04-24T02:41:59;8.27;;;3.60;;
60239;SDS011;46102;39.012;-7.064;2023-04-24T02:44:01;8.10;;;3.38;;
60239;SDS011;46102;39.012;-7.064;2023-04-24T02:46:02;10.48;;;4.15;;
60239;SDS011;46102;39.012;-7.064;2023-04-24T02:48:03;4.13;;;3.05;;
60239;SDS011;46102;39.012;-7.064;2023-04-24T02:50:04;8.68;;;3.42;;
60239;SDS011;46102;39.012;-7.064;2023-04-24T02:52:05;5.10;;;2.95;;
60239;SDS011;46102;39.012;-7.064;2023-04-24T02:54:09;5.32;;;3.17;;
60239;SDS011;46102;39.012;-7.064;2023-04-24T02:56:10;8.60;;;3.13;;
60239;SDS011;46102;39.012;-7.064;2023-04-24T02:58:12;5.50;;;2.80;;
60239;SDS011;46102;39.012;-7.064;2023-04-24T03:00:13;3.13;;;2.80;;
60239;SDS011;46102;39.012;-7.064;2023-04-24T03:02:14;7.70;;;2.95;;
60239;SDS011;46102;39.012;-7.064;2023-04-24T03:04:15;7.03;;;2.30;;
60239;SDS011;46102;39.012;-7.064;2023-04-24T03:06:16;6.75;;;2.90;;
60239;SDS011;46102;39.012;-7.064;2023-04-24T03:08:17;4.88;;;2.80;;
60239;SDS011;46102;39.012;-7.064;2023-04-24T03:10:18;3.95;;;2.55;;
60239;SDS011;46102;39.012;-7.064;2023-04-24T03:12:19;6.07;;;2.40;;
60239;SDS011;46102;39.012;-7.064;2023-04-24T03:14:20;4.22;;;2.63;;
60239;SDS011;46102;39.012;-7.064;2023-04-24T03:16:20;4.57;;;2.45;;
60239;SDS011;46102;39.012;-7.064;2023-04-24T03:18:21;2.88;;;2.55;;
60239;SDS011;46102;39.012;-7.064;2023-04-24T03:20:24;5.97;;;2.17;;
60239;SDS011;46102;39.012;-7.064;2023-04-24T03:22:26;4.53;;;2.08;;
60239;SDS011;46102;39.012;-7.064;2023-04-24T03:24:27;4.80;;;2.05;;
60239;SDS011;46102;39.012;-7.064;2023-04-24T03:26:29;6.30;;;2.35;;
60239;SDS011;46102;39.012;-7.064;2023-04-24T03:28:47;5.78;;;2.15;;
60239;SDS011;46102;39.012;-7.064;2023-04-24T03:30:48;3.03;;;1.75;;
60239;SDS011;46102;39.012;-7.064;2023-04-24T03:32:50;7.60;;;2.35;;
60239;SDS011;46102;39.012;-7.064;2023-04-24T03:34:56;3.47;;;2.80;;
60239;SDS011;46102;39.012;-7.064;2023-04-24T03:36:57;3.75;;;1.95;;
60239;SDS011;46102;39.012;-7.064;2023-04-24T03:38:59;6.55;;;2.17;;
60239;SDS011;46102;39.012;-7.064;2023-04-24T03:41:06;5.28;;;2.00;;
60239;SDS011;46102;39.012;-7.064;2023-04-24T03:43:13;3.15;;;1.52;;
60239;SDS011;46102;39.012;-7.064;2023-04-24T03:45:14;8.88;;;2.17;;
60239;SDS011;46102;39.012;-7.064;2023-04-24T03:47:19;5.72;;;2.13;;
60239;SDS011;46102;39.012;-7.064;2023-04-24T03:49:21;5.15;;;1.70;;
60239;SDS011;46102;39.012;-7.064;2023-04-24T03:51:22;10.05;;;2.85;;
60239;SDS011;46102;39.012;-7.064;2023-04-24T03:53:27;4.45;;;2.13;;
60239;SDS011;46102;39.012;-7.064;2023-04-24T03:55:28;6.90;;;2.10;;
60239;SDS011;46102;39.012;-7.064;2023-04-24T03:57:30;10.20;;;2.00;;
60239;SDS011;46102;39.012;-7.064;2023-04-24T03:59:45;4.25;;;1.60;;
60239;SDS011;46102;39.012;-7.064;2023-04-24T04:01:51;7.10;;;1.85;;
60239;SDS011;46102;39.012;-7.064;2023-04-24T04:03:52;4.43;;;1.55;;
60239;SDS011;46102;39.012;-7.064;2023-04-24T04:05:57;4.88;;;1.88;;
60239;SDS011;46102;39.012;-7.064;2023-04-24T04:07:57;4.57;;;1.60;;
60239;SDS011;46102;39.012;-7.064;2023-04-24T04:09:59;9.68;;;2.03;;
60239;SDS011;46102;39.012;-7.064;2023-04-24T04:11:59;3.17;;;2.00;;
60239;SDS011;46102;39.012;-7.064;2023-04-24T04:14:00;4.18;;;1.67;;
60239;SDS011;46102;39.012;-7.064;2023-04-24T04:16:02;3.58;;;1.52;;
60239;SDS011;46102;39.012;-7.064;2023-04-24T04:18:03;3.03;;;1.80;;
60239;SDS011;46102;39.012;-7.064;2023-04-24T04:20:04;4.88;;;2.10;;
60239;SDS011;46102;39.012;-7.064;2023-04-24T04:22:09;3.80;;;1.95;;
60239;SDS011;46102;39.012;-7.064;2023-04-24T04:24:19;3.50;;;1.55;;
60239;SDS011;46102;39.012;-7.064;2023-04-24T04:26:22;4.13;;;1.70;;
60239;SDS011;46102;39.012;-7.064;2023-04-24T04:28:40;4.20;;;1.88;;
60239;SDS011;46102;39.012;-7.064;2023-04-24T04:30:41;4.45;;;2.25;;
60239;SDS011;46102;39.012;-7.064;2023-04-24T04:32:42;2.83;;;1.48;;
60239;SDS011;46102;39.012;-7.064;2023-04-24T04:34:43;2.65;;;1.60;;
60239;SDS011;46102;39.012;-7.064;2023-04-24T04:36:46;4.30;;;1.70;;
60239;SDS011;46102;39.012;-7.064;2023-04-24T04:39:01;4.85;;;1.48;;
60239;SDS011;46102;39.012;-7.064;2023-04-24T04:41:26;7.15;;;1.73;;
60239;SDS011;46102;39.012;-7.064;2023-04-24T04:43:27;4.10;;;0.95;;
60239;SDS011;46102;39.012;-7.064;2023-04-24T04:45:29;2.22;;;1.20;;
60239;SDS011;46102;39.012;-7.064;2023-04-24T04:47:49;7.60;;;1.20;;
60239;SDS011;46102;39.012;-7.064;2023-04-24T04:49:50;2.83;;;1.50;;
60239;SDS011;46102;39.012;-7.064;2023-04-24T04:51:57;3.60;;;1.27;;
60239;SDS011;46102;39.012;-7.064;2023-04-24T04:54:00;2.25;;;1.30;;
60239;SDS011;46102;39.012;-7.064;2023-04-24T04:56:01;3.58;;;1.38;;
60239;SDS011;46102;39.012;-7.064;2023-04-24T04:58:10;5.80;;;1.63;;
60239;SDS011;46102;39.012;-7.064;2023-04-24T05:00:12;4.82;;;1.83;;
60239;SDS011;46102;39.012;-7.064;2023-04-24T05:02:20;3.67;;;1.10;;
60239;SDS011;46102;39.012;-7.064;2023-04-24T05:04:21;2.05;;;1.40;;
60239;SDS011;46102;39.012;-7.064;2023-04-24T05:06:22;3.58;;;0.95;;
60239;SDS011;46102;39.012;-7.064;2023-04-24T05:08:23;2.58;;;1.15;;
60239;SDS011;46102;39.012;-7.064;2023-04-24T05:10:24;3.63;;;1.25;;
60239;SDS011;46102;39.012;-7.064;2023-04-24T05:12:27;3.40;;;1.23;;
60239;SDS011;46102;39.012;-7.064;2023-04-24T05:14:28;0.93;;;0.88;;
60239;SDS011;46102;39.012;-7.064;2023-04-24T05:16:29;3.20;;;1.20;;
60239;SDS011;46102;39.012;-7.064;2023-04-24T05:18:31;1.92;;;1.30;;
60239;SDS011;46102;39.012;-7.064;2023-04-24T05:20:33;1.63;;;0.80;;
60239;SDS011;46102;39.012;-7.064;2023-04-24T05:22:34;2.40;;;1.10;;
60239;SDS011;46102;39.012;-7.064;2023-04-24T05:24:37;2.35;;;1.00;;
60239;SDS011;46102;39.012;-7.064;2023-04-24T05:26:52;2.30;;;1.15;;
60239;SDS011;46102;39.012;-7.064;2023-04-24T05:28:57;1.63;;;1.00;;
60239;SDS011;46102;39.012;-7.064;2023-04-24T05:30:58;2.20;;;1.10;;
60239;SDS011;46102;39.012;-7.064;2023-04-24T05:32:59;3.03;;;1.23;;
60239;SDS011;46102;39.012;-7.064;2023-04-24T05:35:00;2.92;;;1.40;;
60239;SDS011;46102;39.012;-7.064;2023-04-24T05:37:01;2.60;;;1.23;;
60239;SDS011;46102;39.012;-7.064;2023-04-24T05:39:03;4.85;;;1.48;;
60239;SDS011;46102;39.012;-7.064;2023-04-24T05:41:05;2.72;;;1.33;;
60239;SDS011;46102;39.012;-7.064;2023-04-24T05:43:06;2.60;;;1.00;;
60239;SDS011;46102;39.012;-7.064;2023-04-24T05:45:07;3.08;;;1.33;;
60239;SDS011;46102;39.012;-7.064;2023-04-24T05:47:09;2.30;;;1.10;;
60239;SDS011;46102;39.012;-7.064;2023-04-24T05:49:10;3.35;;;1.77;;
60239;SDS011;46102;39.012;-7.064;2023-04-24T05:51:12;1.60;;;1.15;;
60239;SDS011;46102;39.012;-7.064;2023-04-24T05:53:12;3.53;;;1.40;;
60239;SDS011;46102;39.012;-7.064;2023-04-24T05:55:13;2.28;;;0.77;;
60239;SDS011;46102;39.012;-7.064;2023-04-24T05:57:16;1.77;;;0.80;;
60239;SDS011;46102;39.012;-7.064;2023-04-24T05:59:27;1.25;;;1.15;;
60239;SDS011;46102;39.012;-7.064;2023-04-24T06:01:28;2.80;;;1.10;;
60239;SDS011;46102;39.012;-7.064;2023-04-24T06:03:41;3.83;;;1.95;;
60239;SDS011;46102;39.012;-7.064;2023-04-24T06:05:42;1.65;;;1.13;;
60239;SDS011;46102;39.012;-7.064;2023-04-24T06:07:44;2.40;;;1.00;;
60239;SDS011;46102;39.012;-7.064;2023-04-24T06:09:45;4.00;;;1.30;;
60239;SDS011;46102;39.012;-7.064;2023-04-24T06:11:47;5.63;;;1.00;;
60239;SDS011;46102;39.012;-7.064;2023-04-24T06:13:48;2.35;;;0.93;;
60239;SDS011;46102;39.012;-7.064;2023-04-24T06:16:07;3.97;;;1.08;;
60239;SDS011;46102;39.012;-7.064;2023-04-24T06:18:12;2.28;;;0.90;;
60239;SDS011;46102;39.012;-7.064;2023-04-24T06:20:14;6.15;;;1.70;;
60239;SDS011;46102;39.012;-7.064;2023-04-24T06:22:15;4.57;;;1.15;;
60239;SDS011;46102;39.012;-7.064;2023-04-24T06:24:16;5.05;;;1.67;;
60239;SDS011;46102;39.012;-7.064;2023-04-24T06:26:16;2.08;;;1.05;;
60239;SDS011;46102;39.012;-7.064;2023-04-24T06:28:17;7.60;;;1.83;;
60239;SDS011;46102;39.012;-7.064;2023-04-24T06:30:18;3.17;;;1.17;;
60239;SDS011;46102;39.012;-7.064;2023-04-24T06:32:19;3.58;;;1.33;;
60239;SDS011;46102;39.012;-7.064;2023-04-24T06:34:20;7.88;;;1.30;;
60239;SDS011;46102;39.012;-7.064;2023-04-24T06:36:21;2.05;;;1.00;;
60239;SDS011;46102;39.012;-7.064;2023-04-24T06:38:22;1.55;;;0.90;;
60239;SDS011;46102;39.012;-7.064;2023-04-24T06:40:23;2.53;;;1.25;;
60239;SDS011;46102;39.012;-7.064;2023-04-24T06:42:24;2.65;;;1.10;;
60239;SDS011;46102;39.012;-7.064;2023-04-24T06:44:25;0.90;;;0.88;;
60239;SDS011;46102;39.012;-7.064;2023-04-24T06:46:26;5.20;;;1.45;;
60239;SDS011;46102;39.012;-7.064;2023-04-24T06:48:27;1.67;;;1.13;;
60239;SDS011;46102;39.012;-7.064;2023-04-24T06:50:28;1.92;;;0.98;;
60239;SDS011;46102;39.012;-7.064;2023-04-24T06:52:29;4.50;;;1.38;;
60239;SDS011;46102;39.012;-7.064;2023-04-24T06:54:33;2.42;;;0.90;;
60239;SDS011;46102;39.012;-7.064;2023-04-24T06:56:34;2.08;;;1.25;;
60239;SDS011;46102;39.012;-7.064;2023-04-24T06:58:35;2.90;;;1.20;;
60239;SDS011;46102;39.012;-7.064;2023-04-24T07:00:36;1.25;;;1.13;;
60239;SDS011;46102;39.012;-7.064;2023-04-24T07:02:36;3.00;;;1.00;;
60239;SDS011;46102;39.012;-7.064;2023-04-24T07:04:37;5.70;;;1.30;;
60239;SDS011;46102;39.012;-7.064;2023-04-24T07:06:38;1.95;;;1.08;;
60239;SDS011;46102;39.012;-7.064;2023-04-24T07:08:39;3.03;;;1.00;;
60239;SDS011;46102;39.012;-7.064;2023-04-24T07:10:42;3.20;;;0.85;;
60239;SDS011;46102;39.012;-7.064;2023-04-24T07:12:42;3.60;;;0.98;;
60239;SDS011;46102;39.012;-7.064;2023-04-24T07:14:43;2.90;;;1.15;;
60239;SDS011;46102;39.012;-7.064;2023-04-24T07:16:44;0.95;;;0.90;;
60239;SDS011;46102;39.012;-7.064;2023-04-24T07:18:45;1.63;;;0.93;;
60239;SDS011;46102;39.012;-7.064;2023-04-24T07:20:46;1.67;;;0.98;;
60239;SDS011;46102;39.012;-7.064;2023-04-24T07:22:47;6.40;;;1.27;;
60239;SDS011;46102;39.012;-7.064;2023-04-24T07:24:49;1.30;;;1.08;;
60239;SDS011;46102;39.012;-7.064;2023-04-24T07:26:50;3.20;;;1.00;;
60239;SDS011;46102;39.012;-7.064;2023-04-24T07:28:52;1.75;;;1.52;;
60239;SDS011;46102;39.012;-7.064;2023-04-24T07:30:53;5.22;;;0.90;;
60239;SDS011;46102;39.012;-7.064;2023-04-24T07:32:54;4.47;;;1.00;;
60239;SDS011;46102;39.012;-7.064;2023-04-24T07:34:55;1.95;;;0.80;;
60239;SDS011;46102;39.012;-7.064;2023-04-24T07:36:56;2.95;;;0.80;;
60239;SDS011;46102;39.012;-7.064;2023-04-24T07:38:57;3.83;;;1.00;;
60239;SDS011;46102;39.012;-7.064;2023-04-24T07:40:58;0.60;;;0.50;;
60239;SDS011;46102;39.012;-7.064;2023-04-24T07:42:59;3.97;;;0.98;;
60239;SDS011;46102;39.012;-7.064;2023-04-24T07:44:59;1.98;;;1.00;;
60239;SDS011;46102;39.012;-7.064;2023-04-24T07:47:00;1.42;;;0.85;;
60239;SDS011;46102;39.012;-7.064;2023-04-24T07:49:01;2.50;;;1.08;;
60239;SDS011;46102;39.012;-7.064;2023-04-24T07:51:02;7.30;;;3.40;;
60239;SDS011;46102;39.012;-7.064;2023-04-24T07:53:03;13.65;;;6.78;;
60239;SDS011;46102;39.012;-7.064;2023-04-24T07:55:03;2.03;;;1.13;;
60239;SDS011;46102;39.012;-7.064;2023-04-24T07:57:05;1.88;;;0.98;;
60239;SDS011;46102;39.012;-7.064;2023-04-24T07:59:06;3.90;;;1.00;;
60239;SDS011;46102;39.012;-7.064;2023-04-24T08:01:07;33.38;;;12.30;;
60239;SDS011;46102;39.012;-7.064;2023-04-24T08:03:08;36.50;;;12.23;;
60239;SDS011;46102;39.012;-7.064;2023-04-24T08:05:09;1.75;;;1.05;;
60239;SDS011;46102;39.012;-7.064;2023-04-24T08:07:10;8.88;;;3.90;;
60239;SDS011;46102;39.012;-7.064;2023-04-24T08:09:13;1.65;;;1.35;;
60239;SDS011;46102;39.012;-7.064;2023-04-24T08:11:13;5.97;;;2.88;;
60239;SDS011;46102;39.012;-7.064;2023-04-24T08:13:14;3.55;;;1.48;;
60239;SDS011;46102;39.012;-7.064;2023-04-24T08:15:15;2.45;;;1.05;;
60239;SDS011;46102;39.012;-7.064;2023-04-24T08:17:16;2.17;;;0.73;;
60239;SDS011;46102;39.012;-7.064;2023-04-24T08:19:17;2.05;;;0.82;;
60239;SDS011;46102;39.012;-7.064;2023-04-24T08:21:18;1.30;;;1.20;;
60239;SDS011;46102;39.012;-7.064;2023-04-24T08:23:20;2.42;;;1.30;;
60239;SDS011;46102;39.012;-7.064;2023-04-24T08:25:22;3.17;;;2.17;;
60239;SDS011;46102;39.012;-7.064;2023-04-24T08:27:25;1.98;;;1.33;;
60239;SDS011;46102;39.012;-7.064;2023-04-24T08:29:26;7.93;;;3.55;;
60239;SDS011;46102;39.012;-7.064;2023-04-24T08:31:27;3.47;;;2.35;;
60239;SDS011;46102;39.012;-7.064;2023-04-24T08:33:28;7.47;;;3.15;;
60239;SDS011;46102;39.012;-7.064;2023-04-24T08:35:34;1.50;;;1.40;;
60239;SDS011;46102;39.012;-7.064;2023-04-24T08:37:35;1.95;;;1.02;;
60239;SDS011;46102;39.012;-7.064;2023-04-24T08:39:36;2.03;;;0.93;;
60239;SDS011;46102;39.012;-7.064;2023-04-24T08:41:37;6.05;;;1.70;;
60239;SDS011;46102;39.012;-7.064;2023-04-24T08:43:39;4.65;;;3.30;;
60239;SDS011;46102;39.012;-7.064;2023-04-24T08:45:40;63.42;;;21.55;;
60239;SDS011;46102;39.012;-7.064;2023-04-24T08:47:41;21.60;;;11.88;;
60239;SDS011;46102;39.012;-7.064;2023-04-24T08:49:42;18.65;;;11.20;;
60239;SDS011;46102;39.012;-7.064;2023-04-24T08:51:44;18.95;;;15.05;;
60239;SDS011;46102;39.012;-7.064;2023-04-24T08:53:47;7.53;;;4.30;;
60239;SDS011;46102;39.012;-7.064;2023-04-24T08:55:48;3.75;;;2.13;;
60239;SDS011;46102;39.012;-7.064;2023-04-24T08:57:51;4.40;;;1.00;;
60239;SDS011;46102;39.012;-7.064;2023-04-24T09:01:56;5.15;;;3.00;;
60239;SDS011;46102;39.012;-7.064;2023-04-24T09:03:57;12.30;;;7.68;;
60239;SDS011;46102;39.012;-7.064;2023-04-24T09:06:02;13.13;;;7.80;;
60239;SDS011;46102;39.012;-7.064;2023-04-24T09:08:06;24.77;;;13.75;;
60239;SDS011;46102;39.012;-7.064;2023-04-24T09:10:08;17.50;;;11.40;;
60239;SDS011;46102;39.012;-7.064;2023-04-24T09:12:09;9.73;;;5.82;;
60239;SDS011;46102;39.012;-7.064;2023-04-24T09:14:10;2.60;;;1.67;;
60239;SDS011;46102;39.012;-7.064;2023-04-24T09:16:11;1.00;;;0.50;;
60239;SDS011;46102;39.012;-7.064;2023-04-24T09:18:14;3.05;;;0.70;;
60239;SDS011;46102;39.012;-7.064;2023-04-24T09:20:15;2.42;;;1.23;;
60239;SDS011;46102;39.012;-7.064;2023-04-24T09:22:16;3.42;;;1.60;;
60239;SDS011;46102;39.012;-7.064;2023-04-24T09:24:18;2.13;;;0.80;;
60239;SDS011;46102;39.012;-7.064;2023-04-24T09:26:22;2.55;;;2.22;;
60239;SDS011;46102;39.012;-7.064;2023-04-24T09:28:29;6.43;;;2.25;;
60239;SDS011;46102;39.012;-7.064;2023-04-24T09:30:31;6.78;;;2.03;;
60239;SDS011;46102;39.012;-7.064;2023-04-24T09:32:32;3.22;;;1.70;;
60239;SDS011;46102;39.012;-7.064;2023-04-24T09:34:33;2.20;;;0.90;;
60239;SDS011;46102;39.012;-7.064;2023-04-24T09:36:37;3.47;;;0.98;;
60239;SDS011;46102;39.012;-7.064;2023-04-24T09:38:39;1.60;;;0.63;;
60239;SDS011;46102;39.012;-7.064;2023-04-24T09:40:40;2.17;;;0.70;;
60239;SDS011;46102;39.012;-7.064;2023-04-24T09:42:45;4.97;;;2.05;;
60239;SDS011;46102;39.012;-7.064;2023-04-24T09:44:53;0.90;;;0.70;;
60239;SDS011;46102;39.012;-7.064;2023-04-24T09:46:54;1.58;;;0.77;;
60239;SDS011;46102;39.012;-7.064;2023-04-24T09:48:56;1.92;;;0.70;;
60239;SDS011;46102;39.012;-7.064;2023-04-24T09:50:57;0.40;;;0.40;;
60239;SDS011;46102;39.012;-7.064;2023-04-24T09:52:59;14.00;;;5.35;;
60239;SDS011;46102;39.012;-7.064;2023-04-24T09:57:10;1.55;;;0.68;;
60239;SDS011;46102;39.012;-7.064;2023-04-24T09:59:12;1.13;;;0.50;;
60239;SDS011;46102;39.012;-7.064;2023-04-24T10:01:14;15.52;;;5.65;;
60239;SDS011;46102;39.012;-7.064;2023-04-24T10:03:14;6.22;;;5.63;;
60239;SDS011;46102;39.012;-7.064;2023-04-24T10:05:18;1.45;;;1.35;;
60239;SDS011;46102;39.012;-7.064;2023-04-24T10:07:19;0.98;;;0.65;;
60239;SDS011;46102;39.012;-7.064;2023-04-24T10:09:21;3.30;;;1.10;;
60239;SDS011;46102;39.012;-7.064;2023-04-24T10:13:26;0.93;;;0.63;;
60239;SDS011;46102;39.012;-7.064;2023-04-24T10:15:28;3.00;;;0.43;;
60239;SDS011;46102;39.012;-7.064;2023-04-24T10:17:30;1.08;;;0.70;;
60239;SDS011;46102;39.012;-7.064;2023-04-24T10:19:31;4.03;;;1.02;;
60239;SDS011;46102;39.012;-7.064;2023-04-24T10:21:34;2.53;;;2.13;;
60239;SDS011;46102;39.012;-7.064;2023-04-24T10:25:39;1.90;;;0.60;;
60239;SDS011;46102;39.012;-7.064;2023-04-24T10:27:40;0.43;;;0.40;;
60239;SDS011;46102;39.012;-7.064;2023-04-24T10:29:41;0.95;;;0.63;;
60239;SDS011;46102;39.012;-7.064;2023-04-24T10:31:44;0.43;;;0.30;;
60239;SDS011;46102;39.012;-7.064;2023-04-24T10:33:48;2.65;;;0.60;;
60239;SDS011;46102;39.012;-7.064;2023-04-24T10:37:57;0.68;;;0.68;;
60239;SDS011;46102;39.012;-7.064;2023-04-24T10:40:01;2.63;;;1.50;;
60239;SDS011;46102;39.012;-7.064;2023-04-24T10:42:13;2.08;;;0.50;;
60239;SDS011;46102;39.012;-7.064;2023-04-24T10:44:17;3.63;;;3.42;;
60239;SDS011;46102;39.012;-7.064;2023-04-24T10:46:21;3.63;;;2.78;;
60239;SDS011;46102;39.012;-7.064;2023-04-24T10:48:26;2.22;;;0.75;;
60239;SDS011;46102;39.012;-7.064;2023-04-24T10:50:28;3.08;;;0.93;;
60239;SDS011;46102;39.012;-7.064;2023-04-24T10:52:47;1.55;;;1.45;;
60239;SDS011;46102;39.012;-7.064;2023-04-24T10:54:50;1.25;;;1.15;;
60239;SDS011;46102;39.012;-7.064;2023-04-24T10:56:51;0.50;;;0.45;;
60239;SDS011;46102;39.012;-7.064;2023-04-24T10:58:53;2.05;;;0.90;;
60239;SDS011;46102;39.012;-7.064;2023-04-24T11:00:58;1.08;;;0.60;;
60239;SDS011;46102;39.012;-7.064;2023-04-24T11:02:59;0.50;;;0.50;;
60239;SDS011;46102;39.012;-7.064;2023-04-24T11:05:02;0.75;;;0.75;;
60239;SDS011;46102;39.012;-7.064;2023-04-24T11:07:04;4.05;;;1.00;;
60239;SDS011;46102;39.012;-7.064;2023-04-24T11:09:06;1.88;;;1.30;;
60239;SDS011;46102;39.012;-7.064;2023-04-24T11:11:17;5.90;;;3.85;;
60239;SDS011;46102;39.012;-7.064;2023-04-24T11:13:21;5.47;;;2.75;;
60239;SDS011;46102;39.012;-7.064;2023-04-24T11:15:23;1.02;;;0.40;;
60239;SDS011;46102;39.012;-7.064;2023-04-24T11:19:38;0.68;;;0.50;;
60239;SDS011;46102;39.012;-7.064;2023-04-24T11:23:55;0.82;;;0.50;;
60239;SDS011;46102;39.012;-7.064;2023-04-24T11:28:20;0.57;;;0.40;;
60239;SDS011;46102;39.012;-7.064;2023-04-24T11:30:24;0.43;;;0.40;;
60239;SDS011;46102;39.012;-7.064;2023-04-24T11:32:36;0.50;;;0.50;;
60239;SDS011;46102;39.012;-7.064;2023-04-24T11:34:38;1.92;;;0.57;;
60239;SDS011;46102;39.012;-7.064;2023-04-24T11:36:39;1.30;;;0.60;;
60239;SDS011;46102;39.012;-7.064;2023-04-24T11:38:40;0.70;;;0.60;;
60239;SDS011;46102;39.012;-7.064;2023-04-24T11:40:41;5.20;;;0.35;;
60239;SDS011;46102;39.012;-7.064;2023-04-24T11:42:45;0.50;;;0.20;;
60239;SDS011;46102;39.012;-7.064;2023-04-24T11:44:47;0.68;;;0.38;;
60239;SDS011;46102;39.012;-7.064;2023-04-24T11:46:50;1.80;;;0.60;;
60239;SDS011;46102;39.012;-7.064;2023-04-24T11:48:50;0.20;;;0.20;;
60239;SDS011;46102;39.012;-7.064;2023-04-24T11:50:51;0.30;;;0.30;;
60239;SDS011;46102;39.012;-7.064;2023-04-24T11:52:52;0.50;;;0.50;;
60239;SDS011;46102;39.012;-7.064;2023-04-24T11:54:53;1.17;;;0.32;;
60239;SDS011;46102;39.012;-7.064;2023-04-24T11:56:55;1.08;;;0.25;;
60239;SDS011;46102;39.012;-7.064;2023-04-24T11:58:57;1.38;;;0.50;;
60239;SDS011;46102;39.012;-7.064;2023-04-24T12:00:57;0.77;;;0.30;;
60239;SDS011;46102;39.012;-7.064;2023-04-24T12:03:06;0.93;;;0.47;;
60239;SDS011;46102;39.012;-7.064;2023-04-24T12:05:08;0.75;;;0.50;;
60239;SDS011;46102;39.012;-7.064;2023-04-24T12:07:09;1.10;;;0.65;;
60239;SDS011;46102;39.012;-7.064;2023-04-24T12:09:10;1.48;;;1.38;;
60239;SDS011;46102;39.012;-7.064;2023-04-24T12:11:14;1.20;;;0.90;;
60239;SDS011;46102;39.012;-7.064;2023-04-24T12:13:15;0.45;;;0.45;;
60239;SDS011;46102;39.012;-7.064;2023-04-24T12:15:17;1.45;;;0.40;;
60239;SDS011;46102;39.012;-7.064;2023-04-24T12:17:26;0.63;;;0.30;;
60239;SDS011;46102;39.012;-7.064;2023-04-24T12:19:31;0.73;;;0.20;;
60239;SDS011;46102;39.012;-7.064;2023-04-24T12:21:32;1.02;;;0.30;;